sensor_id;sensor_type;location;lat;lon;timestamp;pressure;altitude;pressure_sealevel;temperature;humidity
70968;BME280;58629;48.808;8.820;2023-03-23T00:01:48;96531.50;;;11.96;63.82
70968;BME280;58629;48.808;8.820;2023-03-23T00:04:16;96526.50;;;11.98;63.87
70968;BME280;58629;48.808;8.820;2023-03-23T00:06:42;96529.88;;;11.98;64.33
70968;BME280;58629;48.808;8.820;2023-03-23T00:09:11;96530.31;;;11.97;63.73
70968;BME280;58629;48.808;8.820;2023-03-23T00:11:37;96530.44;;;11.93;64.28
70968;BME280;58629;48.808;8.820;2023-03-23T00:14:04;96521.22;;;11.85;65.03
70968;BME280;58629;48.808;8.820;2023-03-23T00:16:31;96523.75;;;11.89;65.09
70968;BME280;58629;48.808;8.820;2023-03-23T00:19:05;96527.72;;;11.84;65.33
70968;BME280;58629;48.808;8.820;2023-03-23T00:21:33;96526.66;;;11.82;65.10
70968;BME280;58629;48.808;8.820;2023-03-23T00:24:16;96521.47;;;11.78;65.51
70968;BME280;58629;48.808;8.820;2023-03-23T00:26:46;96520.41;;;11.76;66.47
70968;BME280;58629;48.808;8.820;2023-03-23T00:29:18;96525.81;;;11.72;66.50
70968;BME280;58629;48.808;8.820;2023-03-23T00:31:45;96510.00;;;11.69;67.65
70968;BME280;58629;48.808;8.820;2023-03-23T00:34:19;96510.63;;;11.73;66.61
70968;BME280;58629;48.808;8.820;2023-03-23T00:36:48;96503.97;;;11.68;66.89
70968;BME280;58629;48.808;8.820;2023-03-23T00:39:14;96498.38;;;11.66;67.41
70968;BME280;58629;48.808;8.820;2023-03-23T00:41:44;96494.84;;;11.69;67.57
70968;BME280;58629;48.808;8.820;2023-03-23T00:44:10;96505.13;;;11.67;68.08
70968;BME280;58629;48.808;8.820;2023-03-23T00:46:41;96494.63;;;11.64;67.60
70968;BME280;58629;48.808;8.820;2023-03-23T00:49:12;96495.16;;;11.59;68.01
70968;BME280;58629;48.808;8.820;2023-03-23T00:51:38;96491.78;;;11.58;67.89
70968;BME280;58629;48.808;8.820;2023-03-23T00:54:03;96484.56;;;11.59;67.21
70968;BME280;58629;48.808;8.820;2023-03-23T00:56:29;96481.28;;;11.55;68.24
70968;BME280;58629;48.808;8.820;2023-03-23T00:58:54;96487.97;;;11.47;68.91
70968;BME280;58629;48.808;8.820;2023-03-23T01:01:19;96483.06;;;11.45;68.02
70968;BME280;58629;48.808;8.820;2023-03-23T01:03:45;96482.25;;;11.48;67.51
70968;BME280;58629;48.808;8.820;2023-03-23T01:06:10;96488.38;;;11.45;68.76
70968;BME280;58629;48.808;8.820;2023-03-23T01:08:40;96490.00;;;11.43;68.46
70968;BME280;58629;48.808;8.820;2023-03-23T01:11:14;96490.09;;;11.39;68.45
70968;BME280;58629;48.808;8.820;2023-03-23T01:13:41;96500.28;;;11.41;67.11
70968;BME280;58629;48.808;8.820;2023-03-23T01:16:08;96497.72;;;11.37;67.81
70968;BME280;58629;48.808;8.820;2023-03-23T01:18:33;96490.94;;;11.36;67.96
70968;BME280;58629;48.808;8.820;2023-03-23T01:21:10;96483.84;;;11.33;68.67
70968;BME280;58629;48.808;8.820;2023-03-23T01:23:36;96482.47;;;11.28;68.72
70968;BME280;58629;48.808;8.820;2023-03-23T01:26:10;96476.88;;;11.26;68.53
70968;BME280;58629;48.808;8.820;2023-03-23T01:28:36;96470.69;;;11.29;67.95
70968;BME280;58629;48.808;8.820;2023-03-23T01:31:13;96472.28;;;11.27;68.61
70968;BME280;58629;48.808;8.820;2023-03-23T01:33:41;96465.50;;;11.26;68.92
70968;BME280;58629;48.808;8.820;2023-03-23T01:36:18;96459.91;;;11.24;68.76
70968;BME280;58629;48.808;8.820;2023-03-23T01:38:45;96448.97;;;11.22;69.16
70968;BME280;58629;48.808;8.820;2023-03-23T01:41:11;96453.97;;;11.20;68.68
70968;BME280;58629;48.808;8.820;2023-03-23T01:46:37;96453.66;;;11.18;68.11
70968;BME280;58629;48.808;8.820;2023-03-23T01:49:08;96457.78;;;11.19;68.62
70968;BME280;58629;48.808;8.820;2023-03-23T01:51:38;96451.84;;;11.15;69.26
70968;BME280;58629;48.808;8.820;2023-03-23T01:54:07;96456.09;;;11.12;69.67
70968;BME280;58629;48.808;8.820;2023-03-23T01:56:41;96458.00;;;11.12;69.45
70968;BME280;58629;48.808;8.820;2023-03-23T01:59:11;96459.25;;;11.07;69.91
70968;BME280;58629;48.808;8.820;2023-03-23T02:01:37;96451.84;;;11.02;70.12
70968;BME280;58629;48.808;8.820;2023-03-23T02:04:08;96447.00;;;11.01;69.92
70968;BME280;58629;48.808;8.820;2023-03-23T02:06:34;96445.50;;;11.00;69.76
70968;BME280;58629;48.808;8.820;2023-03-23T02:08:59;96448.56;;;10.98;69.78
70968;BME280;58629;48.808;8.820;2023-03-23T02:11:25;96448.13;;;11.00;69.34
70968;BME280;58629;48.808;8.820;2023-03-23T02:13:50;96452.06;;;10.95;70.56
70968;BME280;58629;48.808;8.820;2023-03-23T02:36:13;96417.00;;;10.79;71.48
70968;BME280;58629;48.808;8.820;2023-03-23T02:41:32;96400.78;;;10.77;71.39
70968;BME280;58629;48.808;8.820;2023-03-23T02:44:01;96390.53;;;10.79;71.37
70968;BME280;58629;48.808;8.820;2023-03-23T02:46:27;96388.31;;;10.77;71.52
70968;BME280;58629;48.808;8.820;2023-03-23T02:48:54;96392.41;;;10.78;71.70
70968;BME280;58629;48.808;8.820;2023-03-23T02:51:22;96395.06;;;10.78;71.66
70968;BME280;58629;48.808;8.820;2023-03-23T02:53:50;96405.97;;;10.80;71.72
70968;BME280;58629;48.808;8.820;2023-03-23T02:56:17;96397.59;;;10.82;71.59
70968;BME280;58629;48.808;8.820;2023-03-23T02:58:43;96404.84;;;10.81;71.82
70968;BME280;58629;48.808;8.820;2023-03-23T03:04:00;96400.16;;;10.85;71.05
70968;BME280;58629;48.808;8.820;2023-03-23T03:11:46;96387.75;;;10.95;70.85
70968;BME280;58629;48.808;8.820;2023-03-23T03:14:20;96383.91;;;11.08;70.51
70968;BME280;58629;48.808;8.820;2023-03-23T03:16:56;96380.84;;;11.10;69.58
70968;BME280;58629;48.808;8.820;2023-03-23T03:19:35;96380.94;;;11.19;69.12
70968;BME280;58629;48.808;8.820;2023-03-23T03:22:03;96384.00;;;11.17;69.49
70968;BME280;58629;48.808;8.820;2023-03-23T03:24:30;96379.13;;;11.16;69.97
70968;BME280;58629;48.808;8.820;2023-03-23T03:26:59;96384.44;;;11.16;69.83
70968;BME280;58629;48.808;8.820;2023-03-23T03:29:36;96390.16;;;11.14;70.04
70968;BME280;58629;48.808;8.820;2023-03-23T03:32:07;96385.19;;;11.16;69.55
70968;BME280;58629;48.808;8.820;2023-03-23T03:34:34;96380.63;;;11.17;69.86
70968;BME280;58629;48.808;8.820;2023-03-23T03:36:59;96380.94;;;11.19;69.89
70968;BME280;58629;48.808;8.820;2023-03-23T03:39:26;96366.50;;;11.20;69.93
70968;BME280;58629;48.808;8.820;2023-03-23T03:41:52;96374.22;;;11.27;69.91
70968;BME280;58629;48.808;8.820;2023-03-23T03:44:18;96362.97;;;11.35;69.57
70968;BME280;58629;48.808;8.820;2023-03-23T03:46:43;96380.78;;;11.35;68.99
70968;BME280;58629;48.808;8.820;2023-03-23T03:49:09;96385.34;;;11.34;69.46
70968;BME280;58629;48.808;8.820;2023-03-23T03:51:39;96379.31;;;11.34;68.97
70968;BME280;58629;48.808;8.820;2023-03-23T03:54:06;96370.47;;;11.37;68.50
70968;BME280;58629;48.808;8.820;2023-03-23T03:56:31;96376.41;;;11.41;68.92
70968;BME280;58629;48.808;8.820;2023-03-23T03:59:01;96384.03;;;11.39;68.66
70968;BME280;58629;48.808;8.820;2023-03-23T04:01:27;96381.72;;;11.41;68.90
70968;BME280;58629;48.808;8.820;2023-03-23T04:03:53;96382.91;;;11.40;69.14
70968;BME280;58629;48.808;8.820;2023-03-23T04:06:19;96381.41;;;11.39;68.85
70968;BME280;58629;48.808;8.820;2023-03-23T04:08:44;96378.44;;;11.37;68.93
70968;BME280;58629;48.808;8.820;2023-03-23T04:11:12;96372.81;;;11.35;69.02
70968;BME280;58629;48.808;8.820;2023-03-23T04:13:39;96378.56;;;11.33;69.25
70968;BME280;58629;48.808;8.820;2023-03-23T04:16:05;96372.94;;;11.31;69.65
70968;BME280;58629;48.808;8.820;2023-03-23T04:18:30;96377.19;;;11.29;69.78
70968;BME280;58629;48.808;8.820;2023-03-23T04:20:57;96374.22;;;11.27;70.17
70968;BME280;58629;48.808;8.820;2023-03-23T04:23:25;96369.34;;;11.25;70.32
70968;BME280;58629;48.808;8.820;2023-03-23T04:25:53;96362.66;;;11.33;69.45
70968;BME280;58629;48.808;8.820;2023-03-23T04:28:21;96364.38;;;11.27;69.57
70968;BME280;58629;48.808;8.820;2023-03-23T04:30:48;96360.97;;;11.27;69.06
70968;BME280;58629;48.808;8.820;2023-03-23T04:33:18;96365.97;;;11.25;69.53
70968;BME280;58629;48.808;8.820;2023-03-23T04:35:44;96376.28;;;11.23;69.37
70968;BME280;58629;48.808;8.820;2023-03-23T04:38:11;96373.31;;;11.21;69.54
70968;BME280;58629;48.808;8.820;2023-03-23T04:40:38;96376.38;;;11.19;69.56
70968;BME280;58629;48.808;8.820;2023-03-23T04:43:04;96382.53;;;11.16;69.79
70968;BME280;58629;48.808;8.820;2023-03-23T04:45:31;96386.34;;;11.15;69.85
70968;BME280;58629;48.808;8.820;2023-03-23T04:47:56;96386.03;;;11.13;70.02
70968;BME280;58629;48.808;8.820;2023-03-23T04:50:24;96383.38;;;11.13;70.47
70968;BME280;58629;48.808;8.820;2023-03-23T04:52:51;96384.13;;;11.14;69.94
70968;BME280;58629;48.808;8.820;2023-03-23T04:55:19;96378.06;;;11.13;70.42
70968;BME280;58629;48.808;8.820;2023-03-23T04:57:46;96379.56;;;11.14;69.99
70968;BME280;58629;48.808;8.820;2023-03-23T05:00:12;96377.34;;;11.13;70.87
70968;BME280;58629;48.808;8.820;2023-03-23T05:02:45;96377.75;;;11.11;70.66
70968;BME280;58629;48.808;8.820;2023-03-23T05:05:13;96382.53;;;11.16;70.21
70968;BME280;58629;48.808;8.820;2023-03-23T05:07:39;96382.09;;;11.18;70.82
70968;BME280;58629;48.808;8.820;2023-03-23T05:10:06;96381.66;;;11.19;70.14
70968;BME280;58629;48.808;8.820;2023-03-23T05:12:32;96375.91;;;11.33;68.18
70968;BME280;58629;48.808;8.820;2023-03-23T05:14:58;96378.25;;;11.31;69.20
70968;BME280;58629;48.808;8.820;2023-03-23T05:17:23;96384.59;;;11.34;69.71
70968;BME280;58629;48.808;8.820;2023-03-23T05:19:52;96383.75;;;11.37;69.04
70968;BME280;58629;48.808;8.820;2023-03-23T05:22:19;96382.69;;;11.34;69.38
70968;BME280;58629;48.808;8.820;2023-03-23T05:24:45;96377.28;;;11.38;69.50
70968;BME280;58629;48.808;8.820;2023-03-23T05:27:11;96372.81;;;11.35;69.12
70968;BME280;58629;48.808;8.820;2023-03-23T05:29:37;96378.44;;;11.37;70.07
70968;BME280;58629;48.808;8.820;2023-03-23T05:32:05;96377.28;;;11.38;69.79
70968;BME280;58629;48.808;8.820;2023-03-23T05:34:33;96378.75;;;11.39;69.44
70968;BME280;58629;48.808;8.820;2023-03-23T05:37:00;96376.94;;;11.49;74.58
70968;BME280;58629;48.808;8.820;2023-03-23T05:39:25;96377.13;;;11.54;71.37
70968;BME280;58629;48.808;8.820;2023-03-23T05:41:51;96380.28;;;11.62;73.14
70968;BME280;58629;48.808;8.820;2023-03-23T05:44:18;96381.34;;;11.64;70.63
70968;BME280;58629;48.808;8.820;2023-03-23T05:46:44;96383.13;;;11.67;72.04
70968;BME280;58629;48.808;8.820;2023-03-23T05:49:09;96386.84;;;11.70;72.14
70968;BME280;58629;48.808;8.820;2023-03-23T05:51:34;96390.13;;;11.74;69.06
70968;BME280;58629;48.808;8.820;2023-03-23T05:54:00;96389.38;;;11.73;69.11
70968;BME280;58629;48.808;8.820;2023-03-23T05:56:26;96392.78;;;11.74;70.86
70968;BME280;58629;48.808;8.820;2023-03-23T05:58:54;96394.81;;;11.70;72.19
70968;BME280;58629;48.808;8.820;2023-03-23T06:01:19;96400.56;;;11.90;73.96
70968;BME280;58629;48.808;8.820;2023-03-23T06:03:44;96401.31;;;12.12;73.85
70968;BME280;58629;48.808;8.820;2023-03-23T06:06:10;96411.91;;;12.34;71.99
70968;BME280;58629;48.808;8.820;2023-03-23T06:08:37;96412.06;;;12.39;70.78
70968;BME280;58629;48.808;8.820;2023-03-23T06:11:04;96421.44;;;12.22;68.85
70968;BME280;58629;48.808;8.820;2023-03-23T06:13:30;96433.06;;;12.25;69.05
70968;BME280;58629;48.808;8.820;2023-03-23T06:15:56;96435.50;;;12.10;68.82
70968;BME280;58629;48.808;8.820;2023-03-23T06:18:23;96435.38;;;11.92;71.06
70968;BME280;58629;48.808;8.820;2023-03-23T06:20:48;96444.63;;;11.75;71.73
70968;BME280;58629;48.808;8.820;2023-03-23T06:23:14;96445.19;;;11.70;71.96
70968;BME280;58629;48.808;8.820;2023-03-23T06:25:39;96439.69;;;11.64;73.73
70968;BME280;58629;48.808;8.820;2023-03-23T06:28:05;96441.69;;;11.60;73.81
70968;BME280;58629;48.808;8.820;2023-03-23T06:30:31;96447.25;;;11.41;76.43
70968;BME280;58629;48.808;8.820;2023-03-23T06:32:56;96453.31;;;11.28;76.41
70968;BME280;58629;48.808;8.820;2023-03-23T06:35:22;96453.72;;;11.27;78.67
70968;BME280;58629;48.808;8.820;2023-03-23T06:37:47;96453.22;;;11.19;77.33
70968;BME280;58629;48.808;8.820;2023-03-23T06:40:12;96451.00;;;11.18;77.21
70968;BME280;58629;48.808;8.820;2023-03-23T06:42:38;96447.59;;;11.17;79.34
70968;BME280;58629;48.808;8.820;2023-03-23T06:45:04;96446.31;;;11.22;79.12
70968;BME280;58629;48.808;8.820;2023-03-23T06:47:29;96461.91;;;11.20;80.06
70968;BME280;58629;48.808;8.820;2023-03-23T06:49:56;96457.03;;;11.18;80.33
70968;BME280;58629;48.808;8.820;2023-03-23T06:52:22;96460.84;;;11.17;81.00
70968;BME280;58629;48.808;8.820;2023-03-23T06:54:48;96464.13;;;11.21;81.54
70968;BME280;58629;48.808;8.820;2023-03-23T06:57:14;96455.47;;;11.21;83.59
70968;BME280;58629;48.808;8.820;2023-03-23T06:59:39;96469.13;;;11.19;83.91
70968;BME280;58629;48.808;8.820;2023-03-23T07:02:05;96471.13;;;11.15;83.26
70968;BME280;58629;48.808;8.820;2023-03-23T07:04:31;96480.38;;;11.11;81.79
70968;BME280;58629;48.808;8.820;2023-03-23T07:06:57;96491.69;;;11.11;82.06
70968;BME280;58629;48.808;8.820;2023-03-23T07:09:22;96492.22;;;11.06;82.23
70968;BME280;58629;48.808;8.820;2023-03-23T07:11:48;96499.88;;;11.04;83.39
70968;BME280;58629;48.808;8.820;2023-03-23T07:14:13;96500.63;;;11.05;83.17
70968;BME280;58629;48.808;8.820;2023-03-23T07:16:40;96507.94;;;11.01;84.34
70968;BME280;58629;48.808;8.820;2023-03-23T07:19:05;96504.63;;;10.97;84.25
70968;BME280;58629;48.808;8.820;2023-03-23T07:21:31;96521.50;;;11.03;83.77
70968;BME280;58629;48.808;8.820;2023-03-23T07:23:56;96532.31;;;11.08;84.21
70968;BME280;58629;48.808;8.820;2023-03-23T07:26:21;96527.00;;;11.08;84.56
70968;BME280;58629;48.808;8.820;2023-03-23T07:28:47;96530.28;;;11.12;83.76
70968;BME280;58629;48.808;8.820;2023-03-23T07:31:12;96535.78;;;11.18;84.56
70968;BME280;58629;48.808;8.820;2023-03-23T07:33:38;96532.94;;;11.25;84.70
70968;BME280;58629;48.808;8.820;2023-03-23T07:36:04;96529.66;;;11.33;84.82
70968;BME280;58629;48.808;8.820;2023-03-23T07:38:29;96538.34;;;11.47;84.33
70968;BME280;58629;48.808;8.820;2023-03-23T07:40:55;96522.28;;;11.63;81.87
70968;BME280;58629;48.808;8.820;2023-03-23T07:43:21;96530.91;;;11.79;82.58
70968;BME280;58629;48.808;8.820;2023-03-23T07:45:47;96523.63;;;11.92;82.38
70968;BME280;58629;48.808;8.820;2023-03-23T07:48:13;96514.19;;;12.04;80.31
70968;BME280;58629;48.808;8.820;2023-03-23T07:50:38;96518.81;;;12.12;79.97
70968;BME280;58629;48.808;8.820;2023-03-23T07:53:04;96528.88;;;12.17;78.61
70968;BME280;58629;48.808;8.820;2023-03-23T07:55:30;96529.94;;;12.20;78.75
70968;BME280;58629;48.808;8.820;2023-03-23T07:57:55;96529.81;;;12.24;78.11
70968;BME280;58629;48.808;8.820;2023-03-23T08:00:22;96526.06;;;12.34;76.86
70968;BME280;58629;48.808;8.820;2023-03-23T08:02:51;96523.16;;;12.41;76.49
70968;BME280;58629;48.808;8.820;2023-03-23T08:05:17;96530.88;;;12.48;76.39
70968;BME280;58629;48.808;8.820;2023-03-23T08:07:46;96528.28;;;12.57;75.98
70968;BME280;58629;48.808;8.820;2023-03-23T08:10:12;96529.66;;;12.61;77.01
70968;BME280;58629;48.808;8.820;2023-03-23T08:12:39;96527.03;;;12.70;76.05
70968;BME280;58629;48.808;8.820;2023-03-23T08:15:06;96536.50;;;12.71;75.78
70968;BME280;58629;48.808;8.820;2023-03-23T08:17:33;96544.88;;;12.70;75.14
70968;BME280;58629;48.808;8.820;2023-03-23T08:19:59;96540.13;;;12.65;75.50
70968;BME280;58629;48.808;8.820;2023-03-23T08:22:25;96537.47;;;12.65;74.90
70968;BME280;58629;48.808;8.820;2023-03-23T08:24:51;96541.31;;;12.64;76.15
70968;BME280;58629;48.808;8.820;2023-03-23T08:27:16;96545.91;;;12.63;76.61
70968;BME280;58629;48.808;8.820;2023-03-23T08:29:44;96548.34;;;12.58;76.82
70968;BME280;58629;48.808;8.820;2023-03-23T08:32:10;96551.56;;;12.53;76.69
70968;BME280;58629;48.808;8.820;2023-03-23T08:34:36;96557.00;;;12.49;77.24
70968;BME280;58629;48.808;8.820;2023-03-23T08:37:01;96559.34;;;12.47;77.52
70968;BME280;58629;48.808;8.820;2023-03-23T08:39:26;96565.09;;;12.46;78.27
70968;BME280;58629;48.808;8.820;2023-03-23T08:41:52;96558.28;;;12.45;77.85
70968;BME280;58629;48.808;8.820;2023-03-23T08:44:18;96556.19;;;12.40;75.96
70968;BME280;58629;48.808;8.820;2023-03-23T08:46:44;96562.66;;;12.39;77.54
70968;BME280;58629;48.808;8.820;2023-03-23T08:49:09;96571.06;;;12.37;75.39
70968;BME280;58629;48.808;8.820;2023-03-23T08:51:35;96577.84;;;12.38;77.17
70968;BME280;58629;48.808;8.820;2023-03-23T08:54:01;96577.44;;;12.40;77.28
70968;BME280;58629;48.808;8.820;2023-03-23T08:56:26;96570.81;;;12.44;77.91
70968;BME280;58629;48.808;8.820;2023-03-23T08:58:52;96572.31;;;12.45;77.22
70968;BME280;58629;48.808;8.820;2023-03-23T09:01:18;96576.44;;;12.46;78.21
70968;BME280;58629;48.808;8.820;2023-03-23T09:03:44;96574.72;;;12.52;77.09
70968;BME280;58629;48.808;8.820;2023-03-23T09:06:09;96578.88;;;12.53;76.69
70968;BME280;58629;48.808;8.820;2023-03-23T09:08:38;96583.50;;;12.62;76.86
70968;BME280;58629;48.808;8.820;2023-03-23T09:11:06;96587.69;;;12.72;75.56
70968;BME280;58629;48.808;8.820;2023-03-23T09:13:32;96586.53;;;12.73;74.80
70968;BME280;58629;48.808;8.820;2023-03-23T09:15:58;96600.31;;;12.80;75.76
70968;BME280;58629;48.808;8.820;2023-03-23T09:18:24;96603.16;;;12.86;75.52
70968;BME280;58629;48.808;8.820;2023-03-23T09:20:51;96609.66;;;12.85;75.73
70968;BME280;58629;48.808;8.820;2023-03-23T09:23:17;96610.50;;;12.82;75.74
70968;BME280;58629;48.808;8.820;2023-03-23T09:25:43;96612.13;;;12.79;76.00
70968;BME280;58629;48.808;8.820;2023-03-23T09:28:09;96614.03;;;12.79;76.88
70968;BME280;58629;48.808;8.820;2023-03-23T09:30:36;96607.44;;;12.83;76.25
70968;BME280;58629;48.808;8.820;2023-03-23T09:33:03;96619.16;;;12.95;77.68
70968;BME280;58629;48.808;8.820;2023-03-23T09:35:30;96607.94;;;13.13;75.65
70968;BME280;58629;48.808;8.820;2023-03-23T09:37:57;96614.69;;;13.35;77.34
70968;BME280;58629;48.808;8.820;2023-03-23T09:43:46;96623.41;;;13.66;76.73
70968;BME280;58629;48.808;8.820;2023-03-23T09:49:10;96629.25;;;13.52;76.42
70968;BME280;58629;48.808;8.820;2023-03-23T09:54:27;96629.25;;;13.52;76.20
70968;BME280;58629;48.808;8.820;2023-03-23T09:56:56;96628.53;;;13.61;78.20
70968;BME280;58629;48.808;8.820;2023-03-23T09:59:31;96623.13;;;13.73;76.03
70968;BME280;58629;48.808;8.820;2023-03-23T10:02:24;96620.69;;;13.97;78.00
70968;BME280;58629;48.808;8.820;2023-03-23T10:04:54;96625.56;;;13.99;75.05
70968;BME280;58629;48.808;8.820;2023-03-23T10:07:23;96612.25;;;13.99;76.84
70968;BME280;58629;48.808;8.820;2023-03-23T10:09:53;96618.50;;;14.14;75.58
70968;BME280;58629;48.808;8.820;2023-03-23T10:15:28;96611.16;;;14.54;75.92
70968;BME280;58629;48.808;8.820;2023-03-23T10:18:16;96611.47;;;14.83;74.33
70968;BME280;58629;48.808;8.820;2023-03-23T10:20:48;96615.47;;;14.78;71.15
70968;BME280;58629;48.808;8.820;2023-03-23T10:25:50;96614.66;;;14.15;73.58
70968;BME280;58629;48.808;8.820;2023-03-23T10:28:32;96623.59;;;14.30;74.11
70968;BME280;58629;48.808;8.820;2023-03-23T10:31:00;96629.22;;;14.32;74.85
70968;BME280;58629;48.808;8.820;2023-03-23T10:33:41;96626.03;;;14.06;72.70
70968;BME280;58629;48.808;8.820;2023-03-23T10:36:30;96632.84;;;14.07;74.25
70968;BME280;58629;48.808;8.820;2023-03-23T10:39:02;96632.63;;;13.83;76.65
70968;BME280;58629;48.808;8.820;2023-03-23T10:41:29;96641.00;;;13.73;75.15
70968;BME280;58629;48.808;8.820;2023-03-23T10:43:55;96630.94;;;13.68;73.71
70968;BME280;58629;48.808;8.820;2023-03-23T10:48:51;96630.06;;;13.71;77.94
70968;BME280;58629;48.808;8.820;2023-03-23T10:51:22;96630.25;;;13.76;77.79
70968;BME280;58629;48.808;8.820;2023-03-23T10:53:51;96629.81;;;13.87;76.75
70968;BME280;58629;48.808;8.820;2023-03-23T10:56:25;96628.75;;;13.75;76.49
70968;BME280;58629;48.808;8.820;2023-03-23T10:58:51;96624.94;;;13.85;77.38
70968;BME280;58629;48.808;8.820;2023-03-23T11:01:19;96620.78;;;13.84;78.39
70968;BME280;58629;48.808;8.820;2023-03-23T11:03:47;96618.63;;;13.92;74.35
70968;BME280;58629;48.808;8.820;2023-03-23T11:06:26;96622.44;;;13.82;76.81
70968;BME280;58629;48.808;8.820;2023-03-23T11:08:57;96622.25;;;13.76;77.79
70968;BME280;58629;48.808;8.820;2023-03-23T11:11:28;96617.56;;;13.89;77.27
70968;BME280;58629;48.808;8.820;2023-03-23T11:14:00;96616.28;;;14.03;77.95
70968;BME280;58629;48.808;8.820;2023-03-23T11:16:31;96608.63;;;14.23;78.21
70968;BME280;58629;48.808;8.820;2023-03-23T11:18:59;96620.94;;;14.30;77.58
70968;BME280;58629;48.808;8.820;2023-03-23T11:21:25;96620.50;;;14.31;75.16
70968;BME280;58629;48.808;8.820;2023-03-23T11:23:55;96622.44;;;14.49;74.95
70968;BME280;58629;48.808;8.820;2023-03-23T11:26:33;96620.06;;;14.60;70.10
70968;BME280;58629;48.808;8.820;2023-03-23T11:29:04;96615.47;;;14.69;71.16
70968;BME280;58629;48.808;8.820;2023-03-23T11:31:33;96616.34;;;14.85;73.63
70968;BME280;58629;48.808;8.820;2023-03-23T11:34:03;96611.44;;;14.92;73.72
70968;BME280;58629;48.808;8.820;2023-03-23T11:36:35;96614.72;;;15.05;71.50
70968;BME280;58629;48.808;8.820;2023-03-23T11:39:03;96610.72;;;15.01;72.18
70968;BME280;58629;48.808;8.820;2023-03-23T11:41:37;96611.28;;;15.05;69.09
70968;BME280;58629;48.808;8.820;2023-03-23T11:44:09;96607.13;;;15.13;72.99
70968;BME280;58629;48.808;8.820;2023-03-23T11:46:45;96610.25;;;15.11;71.07
70968;BME280;58629;48.808;8.820;2023-03-23T11:49:20;96610.84;;;15.06;71.21
70968;BME280;58629;48.808;8.820;2023-03-23T11:51:53;96612.88;;;15.20;71.88
70968;BME280;58629;48.808;8.820;2023-03-23T11:54:33;96610.44;;;14.81;71.75
70968;BME280;58629;48.808;8.820;2023-03-23T11:56:59;96617.38;;;14.60;74.51
70968;BME280;58629;48.808;8.820;2023-03-23T11:59:42;96624.94;;;14.43;73.77
70968;BME280;58629;48.808;8.820;2023-03-23T12:02:45;96622.13;;;14.38;73.19
70968;BME280;58629;48.808;8.820;2023-03-23T12:05:34;96614.56;;;14.36;72.68
70968;BME280;58629;48.808;8.820;2023-03-23T12:08:14;96616.94;;;14.52;73.01
70968;BME280;58629;48.808;8.820;2023-03-23T12:11:00;96614.75;;;14.42;74.37
70968;BME280;58629;48.808;8.820;2023-03-23T12:13:42;96617.69;;;14.44;73.40
70968;BME280;58629;48.808;8.820;2023-03-23T12:19:12;96613.25;;;14.68;73.04
70968;BME280;58629;48.808;8.820;2023-03-23T12:22:38;96610.75;;;14.73;70.36
70968;BME280;58629;48.808;8.820;2023-03-23T12:28:30;96610.72;;;14.92;70.95
70968;BME280;58629;48.808;8.820;2023-03-23T12:31:15;96604.00;;;15.14;72.34
70968;BME280;58629;48.808;8.820;2023-03-23T12:34:20;96590.63;;;15.32;69.89
70968;BME280;58629;48.808;8.820;2023-03-23T12:37:18;96584.56;;;15.32;67.88
70968;BME280;58629;48.808;8.820;2023-03-23T12:40:01;96582.34;;;15.21;68.61
70968;BME280;58629;48.808;8.820;2023-03-23T12:48:32;96584.09;;;15.33;69.34
70968;BME280;58629;48.808;8.820;2023-03-23T12:53:52;96584.38;;;15.35;68.02
70968;BME280;58629;48.808;8.820;2023-03-23T12:58:59;96575.78;;;15.31;65.74
70968;BME280;58629;48.808;8.820;2023-03-23T13:01:30;96572.22;;;15.43;66.47
70968;BME280;58629;48.808;8.820;2023-03-23T13:04:08;96565.09;;;15.40;68.16
70968;BME280;58629;48.808;8.820;2023-03-23T13:06:41;96566.16;;;15.34;66.07
70968;BME280;58629;48.808;8.820;2023-03-23T13:11:42;96557.75;;;15.17;64.25
70968;BME280;58629;48.808;8.820;2023-03-23T13:20:26;96549.69;;;15.03;65.88
70968;BME280;58629;48.808;8.820;2023-03-23T13:23:08;96541.69;;;15.03;67.03
70968;BME280;58629;48.808;8.820;2023-03-23T13:25:46;96545.56;;;14.93;66.95
70968;BME280;58629;48.808;8.820;2023-03-23T13:28:16;96540.34;;;14.98;67.26
70968;BME280;58629;48.808;8.820;2023-03-23T13:30:54;96533.97;;;15.05;67.94
70968;BME280;58629;48.808;8.820;2023-03-23T13:33:20;96534.56;;;15.00;65.19
70968;BME280;58629;48.808;8.820;2023-03-23T13:35:48;96532.47;;;15.04;65.69
70968;BME280;58629;48.808;8.820;2023-03-23T13:38:25;96525.56;;;14.88;65.34
70968;BME280;58629;48.808;8.820;2023-03-23T13:40:52;96525.09;;;14.90;64.85
70968;BME280;58629;48.808;8.820;2023-03-23T13:43:30;96523.78;;;14.94;65.89
70968;BME280;58629;48.808;8.820;2023-03-23T13:48:44;96527.47;;;14.88;65.57
70968;BME280;58629;48.808;8.820;2023-03-23T13:51:36;96523.34;;;14.87;66.02
70968;BME280;58629;48.808;8.820;2023-03-23T13:54:14;96518.91;;;14.84;66.79
70968;BME280;58629;48.808;8.820;2023-03-23T13:59:16;96515.69;;;14.80;66.74
70968;BME280;58629;48.808;8.820;2023-03-23T14:02:20;96504.69;;;14.87;66.78
70968;BME280;58629;48.808;8.820;2023-03-23T14:04:42;96501.25;;;14.95;66.29
70968;BME280;58629;48.808;8.820;2023-03-23T14:07:11;96502.72;;;14.96;66.19
70968;BME280;58629;48.808;8.820;2023-03-23T14:09:42;96493.09;;;14.99;65.41
70968;BME280;58629;48.808;8.820;2023-03-23T14:12:22;96486.13;;;15.01;66.08
70968;BME280;58629;48.808;8.820;2023-03-23T14:14:55;96490.69;;;15.10;66.37
70968;BME280;58629;48.808;8.820;2023-03-23T14:17:39;96464.50;;;15.32;65.02
70968;BME280;58629;48.808;8.820;2023-03-23T14:20:06;96456.03;;;15.42;64.38
70968;BME280;58629;48.808;8.820;2023-03-23T14:22:36;96454.25;;;15.63;64.35
70968;BME280;58629;48.808;8.820;2023-03-23T14:25:16;96454.69;;;15.71;64.58
70968;BME280;58629;48.808;8.820;2023-03-23T14:27:43;96458.25;;;15.68;63.52
70968;BME280;58629;48.808;8.820;2023-03-23T14:30:18;96462.84;;;15.67;64.18
70968;BME280;58629;48.808;8.820;2023-03-23T14:32:44;96462.41;;;15.69;63.93
70968;BME280;58629;48.808;8.820;2023-03-23T14:35:22;96464.72;;;15.76;64.08